Time;durP1;ratioP1;P1;durP2;ratioP2;P2;SDS_P1;SDS_P2;PMS_P1;PMS_P2;Temp;Humidity;BMP_temperature;BMP_pressure;BME280_temperature;BME280_humidity;BME280_pressure;Samples;Min_cycle;Max_cycle;Signal;HPM_P1;HPM_P2
2021/06/09 00:00:07;;;;;;;10.77;9.77;;;17.40;96.20;;;;;;6276447;22;20399;-69
2021/06/09 00:02:34;;;;;;;11.60;10.40;;;17.40;96.10;;;;;;6276570;22;20391;-68
2021/06/09 00:05:02;;;;;;;10.27;9.27;;;17.40;96.00;;;;;;6276119;22;20878;-68
2021/06/09 00:07:28;;;;;;;11.10;10.00;;;17.30;96.20;;;;;;6275854;22;20446;-68
2021/06/09 00:09:55;;;;;;;10.30;9.30;;;17.20;96.50;;;;;;6276501;22;20399;-69
2021/06/09 00:12:21;;;;;;;9.83;8.90;;;17.20;96.70;;;;;;6276493;22;20426;-68
2021/06/09 00:14:54;;;;;;;11.00;9.60;;;17.20;96.90;;;;;;6275852;22;20395;-68
2021/06/09 00:17:20;;;;;;;10.43;9.37;;;17.20;97.00;;;;;;6276325;22;20461;-68
2021/06/09 00:19:46;;;;;;;10.93;9.80;;;17.20;97.00;;;;;;6277154;22;20425;-68
2021/06/09 00:22:14;;;;;;;10.97;9.77;;;17.10;97.10;;;;;;6278491;22;20426;-68
2021/06/09 00:24:41;;;;;;;11.10;9.43;;;17.10;97.40;;;;;;6278293;22;20396;-68
2021/06/09 00:27:07;;;;;;;9.70;8.80;;;17.10;97.30;;;;;;6277903;22;20435;-68
2021/06/09 00:29:34;;;;;;;11.57;9.03;;;17.10;97.20;;;;;;6278397;22;20406;-68
2021/06/09 00:32:00;;;;;;;9.93;8.90;;;17.10;97.00;;;;;;6278042;22;20925;-68
2021/06/09 00:34:27;;;;;;;10.33;9.23;;;17.10;97.10;;;;;;6277854;22;20400;-68
2021/06/09 00:36:53;;;;;;;11.10;9.20;;;17.10;97.10;;;;;;6277974;22;20449;-68
2021/06/09 00:39:21;;;;;;;9.10;8.20;;;17.10;97.00;;;;;;6278288;22;20395;-69
2021/06/09 00:41:47;;;;;;;10.30;9.20;;;17.10;96.90;;;;;;6277813;22;20858;-68
2021/06/09 00:44:14;;;;;;;11.73;10.63;;;17.10;96.90;;;;;;6278322;22;20399;-68
2021/06/09 00:46:42;;;;;;;10.93;9.97;;;17.10;96.70;;;;;;6277970;22;20467;-68
2021/06/09 00:49:09;;;;;;;10.80;9.90;;;17.10;96.90;;;;;;6278226;22;20384;-68
2021/06/09 00:51:36;;;;;;;11.07;9.00;;;17.00;97.10;;;;;;6278212;22;20391;-68
2021/06/09 00:54:04;;;;;;;11.73;8.90;;;17.00;97.50;;;;;;6278293;22;20403;-68
2021/06/09 00:56:36;;;;;;;9.53;8.63;;;17.00;96.90;;;;;;6278217;22;20392;-68
2021/06/09 00:59:04;;;;;;;11.63;10.43;;;17.00;96.90;;;;;;6277920;22;20859;-68
2021/06/09 01:01:31;;;;;;;11.03;10.00;;;17.00;97.10;;;;;;6277812;22;20391;-68
2021/06/09 01:03:58;;;;;;;11.10;9.90;;;17.00;97.20;;;;;;6278023;22;20392;-68
2021/06/09 01:06:25;;;;;;;10.47;9.47;;;17.00;97.40;;;;;;6277530;22;20447;-69
2021/06/09 01:08:53;;;;;;;9.67;8.67;;;17.00;97.60;;;;;;6278012;22;20396;-70
2021/06/09 01:11:21;;;;;;;10.67;9.57;;;17.10;97.80;;;;;;6278096;22;20387;-68
2021/06/09 01:13:49;;;;;;;10.50;9.47;;;17.00;97.60;;;;;;6277862;22;20449;-68
2021/06/09 01:16:17;;;;;;;9.83;8.90;;;17.00;97.60;;;;;;6277484;22;20399;-68
2021/06/09 01:18:44;;;;;;;10.10;9.20;;;17.00;97.80;;;;;;6277432;22;20917;-68
2021/06/09 01:21:10;;;;;;;9.33;8.43;;;17.00;97.80;;;;;;6278078;22;20399;-68
2021/06/09 01:23:39;;;;;;;10.37;9.30;;;17.00;97.90;;;;;;6277928;22;20396;-68
2021/06/09 01:26:07;;;;;;;10.20;9.20;;;16.90;97.80;;;;;;6277914;22;20435;-68
2021/06/09 01:28:36;;;;;;;10.93;9.63;;;16.90;97.60;;;;;;6277526;22;20488;-68
2021/06/09 01:31:03;;;;;;;11.10;8.63;;;16.90;97.30;;;;;;6277525;22;20387;-68
2021/06/09 01:33:30;;;;;;;9.67;8.67;;;16.90;97.80;;;;;;6277594;22;20487;-68
2021/06/09 01:35:56;;;;;;;8.77;7.90;;;16.80;97.30;;;;;;6277425;22;20878;-68
2021/06/09 01:38:23;;;;;;;9.70;8.80;;;16.80;97.30;;;;;;6277733;22;20415;-68
2021/06/09 01:40:51;;;;;;;9.77;8.87;;;16.80;97.10;;;;;;6277718;22;20412;-68
2021/06/09 01:43:20;;;;;;;8.93;8.13;;;16.70;97.40;;;;;;6277696;22;20395;-68
2021/06/09 01:45:47;;;;;;;9.63;8.63;;;16.70;97.50;;;;;;6277139;22;20430;-68
2021/06/09 01:48:13;;;;;;;12.20;9.00;;;16.70;97.50;;;;;;6276991;22;20918;-68
2021/06/09 01:50:40;;;;;;;8.73;7.90;;;16.70;97.30;;;;;;6277668;22;20396;-68
2021/06/09 01:53:08;;;;;;;9.97;7.50;;;16.70;97.30;;;;;;6277654;22;20426;-68
2021/06/09 01:55:36;;;;;;;9.63;8.73;;;16.60;96.70;;;;;;6277280;22;20404;-68
2021/06/09 01:58:07;;;;;;;10.33;7.97;;;16.40;96.80;;;;;;6277601;22;20446;-68
2021/06/09 02:00:38;;;;;;;11.00;8.20;;;16.40;97.40;;;;;;6277650;22;20386;-68
2021/06/09 02:03:05;;;;;;;13.30;10.90;;;16.40;97.10;;;;;;6277582;22;20384;-68
2021/06/09 02:05:34;;;;;;;12.63;11.30;;;16.40;97.30;;;;;;6277049;22;20392;-68
2021/06/09 02:08:04;;;;;;;14.40;11.17;;;16.30;97.70;;;;;;6277623;22;20400;-68
2021/06/09 02:10:31;;;;;;;11.20;10.17;;;16.30;98.00;;;;;;6277078;22;20400;-68
2021/06/09 02:13:05;;;;;;;10.10;9.10;;;16.30;98.20;;;;;;6277553;22;20399;-68
2021/06/09 02:15:31;;;;;;;13.13;11.53;;;16.30;98.30;;;;;;6277092;22;20388;-68
2021/06/09 02:18:09;;;;;;;14.83;9.70;;;16.40;98.20;;;;;;6277002;22;20392;-68
2021/06/09 02:20:37;;;;;;;11.03;9.93;;;16.30;98.40;;;;;;6277542;22;20407;-68
2021/06/09 02:23:11;;;;;;;10.80;9.80;;;16.30;98.80;;;;;;6277561;22;20458;-68
2021/06/09 02:25:41;;;;;;;11.73;10.27;;;16.20;98.70;;;;;;6277450;22;20381;-68
2021/06/09 02:28:09;;;;;;;10.63;9.63;;;16.20;98.80;;;;;;6277186;22;20400;-68
2021/06/09 02:30:35;;;;;;;10.93;9.90;;;16.20;98.90;;;;;;6276893;22;20966;-69
2021/06/09 02:33:04;;;;;;;11.40;10.20;;;16.20;99.10;;;;;;6277192;22;20410;-68
2021/06/09 02:35:35;;;;;;;10.70;9.70;;;16.20;99.00;;;;;;6276878;22;20878;-68
2021/06/09 02:38:03;;;;;;;11.73;10.43;;;16.20;98.90;;;;;;6276907;22;20388;-67
2021/06/09 02:40:31;;;;;;;10.97;9.87;;;16.20;99.10;;;;;;6276786;22;20877;-68
2021/06/09 02:42:57;;;;;;;10.53;9.63;;;16.20;99.00;;;;;;6276834;22;20400;-68
2021/06/09 02:45:25;;;;;;;11.83;10.63;;;16.20;99.40;;;;;;6277029;22;20411;-68
2021/06/09 02:47:58;;;;;;;11.17;10.07;;;16.20;99.40;;;;;;6276805;22;20980;-68
2021/06/09 02:50:25;;;;;;;11.57;10.27;;;16.10;99.50;;;;;;6276693;22;20391;-68
2021/06/09 02:53:03;;;;;;;11.17;9.87;;;16.10;99.70;;;;;;6276727;22;20405;-68
2021/06/09 02:55:40;;;;;;;10.93;10.00;;;16.10;99.60;;;;;;6277484;22;20380;-68
2021/06/09 02:58:14;;;;;;;9.93;9.03;;;16.10;99.40;;;;;;6276684;22;20877;-68
2021/06/09 03:00:55;;;;;;;11.00;10.00;;;16.10;99.20;;;;;;6277068;22;20388;-69
2021/06/09 03:03:28;;;;;;;10.53;9.57;;;16.00;99.10;;;;;;6276823;22;20438;-68
2021/06/09 03:05:59;;;;;;;10.23;9.23;;;16.00;99.20;;;;;;6276821;22;20419;-68
2021/06/09 03:08:33;;;;;;;10.90;9.90;;;15.90;99.10;;;;;;6276518;22;20388;-69
2021/06/09 03:11:04;;;;;;;10.33;9.30;;;15.90;99.10;;;;;;6276481;22;20376;-68
2021/06/09 03:13:51;;;;;;;10.33;9.37;;;15.90;99.00;;;;;;6276958;22;20434;-68
2021/06/09 03:16:23;;;;;;;12.10;8.83;;;15.90;98.90;;;;;;6276978;22;20387;-68
2021/06/09 03:18:52;;;;;;;10.10;8.40;;;15.90;98.80;;;;;;6276352;22;20411;-68
2021/06/09 03:21:23;;;;;;;9.57;8.67;;;15.90;98.70;;;;;;6276843;22;20758;-67
2021/06/09 03:24:04;;;;;;;9.47;8.47;;;15.90;98.40;;;;;;6276792;22;20384;-68
2021/06/09 03:26:50;;;;;;;10.47;9.37;;;15.80;98.30;;;;;;6276210;22;20427;-70
2021/06/09 03:29:27;;;;;;;9.60;8.60;;;15.80;98.60;;;;;;6276384;22;20418;-68
2021/06/09 03:31:57;;;;;;;10.70;9.00;;;15.70;99.00;;;;;;6276757;22;20388;-68
2021/06/09 03:34:28;;;;;;;10.53;9.53;;;15.80;99.20;;;;;;6276231;22;20894;-68
2021/06/09 03:36:57;;;;;;;10.70;9.63;;;15.90;99.30;;;;;;6276627;22;20388;-68
2021/06/09 03:39:25;;;;;;;11.50;10.03;;;15.80;99.50;;;;;;6276655;22;20398;-68
2021/06/09 03:41:57;;;;;;;9.47;8.47;;;15.80;99.30;;;;;;6276578;22;20707;-68
2021/06/09 03:44:27;;;;;;;11.43;9.87;;;15.80;99.40;;;;;;6276539;22;20387;-68
2021/06/09 03:46:56;;;;;;;14.23;9.13;;;15.80;99.60;;;;;;6275998;22;20443;-68
2021/06/09 03:49:29;;;;;;;8.83;8.03;;;15.90;99.70;;;;;;6276141;22;20858;-69
2021/06/09 03:52:00;;;;;;;8.77;7.87;;;15.90;99.50;;;;;;6276528;22;21062;-68
2021/06/09 03:54:29;;;;;;;10.40;9.30;;;15.90;99.30;;;;;;6276188;22;20411;-68
2021/06/09 03:56:57;;;;;;;9.20;8.30;;;16.00;99.40;;;;;;6276457;22;20396;-68
2021/06/09 03:59:29;;;;;;;11.13;9.57;;;16.00;99.40;;;;;;6276451;22;20717;-69
2021/06/09 04:01:59;;;;;;;11.17;8.87;;;16.10;99.50;;;;;;6276969;22;20391;-68
2021/06/09 04:04:29;;;;;;;11.83;8.47;;;16.10;99.10;;;;;;6276759;22;20418;-68
2021/06/09 04:06:58;;;;;;;10.67;9.57;;;16.20;99.00;;;;;;6276302;22;20440;-68
2021/06/09 04:09:29;;;;;;;10.40;9.40;;;16.30;99.20;;;;;;6276327;22;20403;-68
2021/06/09 04:11:59;;;;;;;12.70;9.30;;;16.20;98.90;;;;;;6276796;22;20449;-68
2021/06/09 04:14:33;;;;;;;10.33;8.50;;;16.40;99.40;;;;;;6276352;22;20404;-68
2021/06/09 04:17:05;;;;;;;10.43;9.43;;;16.40;99.30;;;;;;6273759;22;20387;-69
2021/06/09 04:19:33;;;;;;;9.43;8.47;;;16.50;99.10;;;;;;6273194;22;20387;-68
2021/06/09 04:22:03;;;;;;;9.83;8.87;;;16.50;99.00;;;;;;6275011;22;20445;-71
2021/06/09 04:24:31;;;;;;;10.37;9.47;;;16.60;99.50;;;;;;6274499;22;20419;-70
2021/06/09 04:26:59;;;;;;;10.47;9.10;;;16.60;99.20;;;;;;6275266;22;20443;-70
2021/06/09 04:29:26;;;;;;;9.80;8.50;;;16.70;99.60;;;;;;6275433;22;20404;-69
2021/06/09 04:31:54;;;;;;;9.37;8.47;;;16.80;99.60;;;;;;6275295;22;20396;-69
2021/06/09 04:34:22;;;;;;;10.13;9.13;;;16.90;99.50;;;;;;6275248;22;20418;-68
2021/06/09 04:36:51;;;;;;;9.50;8.33;;;17.00;99.20;;;;;;6275671;22;20395;-69
2021/06/09 04:39:20;;;;;;;9.30;8.40;;;17.10;99.10;;;;;;6275041;22;20400;-70
2021/06/09 04:41:47;;;;;;;11.13;9.63;;;17.20;99.00;;;;;;6275418;22;20399;-68
2021/06/09 04:44:14;;;;;;;10.97;9.97;;;17.30;99.20;;;;;;6275429;22;21042;-68
2021/06/09 04:46:42;;;;;;;10.37;8.83;;;17.30;99.20;;;;;;6274517;22;20473;-68
2021/06/09 04:49:09;;;;;;;10.60;9.50;;;17.40;98.90;;;;;;6275204;22;20667;-68
2021/06/09 04:51:38;;;;;;;9.83;8.80;;;17.50;99.00;;;;;;6275095;22;20402;-69
2021/06/09 04:54:09;;;;;;;9.97;9.03;;;17.50;98.10;;;;;;6275698;22;20399;-68
2021/06/09 04:56:38;;;;;;;9.43;8.53;;;17.60;98.00;;;;;;6275493;22;20388;-69
2021/06/09 04:59:08;;;;;;;10.27;9.23;;;17.60;98.40;;;;;;6275794;22;20719;-68
2021/06/09 05:01:38;;;;;;;9.67;8.67;;;17.70;98.60;;;;;;6275836;22;20418;-68
2021/06/09 05:04:05;;;;;;;9.53;8.63;;;17.80;98.60;;;;;;6274822;22;20457;-69
2021/06/09 05:06:31;;;;;;;10.80;9.13;;;17.90;98.50;;;;;;6276983;22;20463;-69
2021/06/09 05:09:03;;;;;;;9.73;8.83;;;17.90;98.10;;;;;;6277995;22;20396;-69
2021/06/09 05:11:37;;;;;;;11.50;9.70;;;18.00;97.60;;;;;;6277173;22;20896;-69
2021/06/09 05:14:07;;;;;;;10.63;8.67;;;18.00;98.10;;;;;;6277640;22;20387;-69
2021/06/09 05:16:35;;;;;;;10.50;9.50;;;18.00;97.70;;;;;;6276877;22;20403;-69
2021/06/09 05:19:10;;;;;;;10.03;9.03;;;18.10;97.50;;;;;;6276688;22;20882;-69
2021/06/09 05:21:39;;;;;;;11.93;10.77;;;18.20;97.70;;;;;;6277192;22;20384;-70
2021/06/09 05:24:12;;;;;;;10.00;9.03;;;18.30;98.10;;;;;;6277703;22;20453;-69
2021/06/09 05:26:40;;;;;;;9.90;9.00;;;18.50;98.30;;;;;;6276650;22;20427;-69
2021/06/09 05:29:08;;;;;;;11.07;9.70;;;18.60;98.20;;;;;;6277001;22;20391;-69
2021/06/09 05:31:37;;;;;;;10.73;9.73;;;18.70;98.10;;;;;;6277346;22;20467;-68
2021/06/09 05:34:05;;;;;;;8.93;8.13;;;18.80;97.40;;;;;;6277232;22;20399;-77
2021/06/09 05:36:34;;;;;;;9.67;8.83;;;18.90;96.70;;;;;;6276822;22;20481;-68
2021/06/09 05:39:01;;;;;;;11.80;9.77;;;19.00;96.90;;;;;;6276700;22;20406;-68
2021/06/09 05:41:30;;;;;;;11.40;8.67;;;19.10;97.30;;;;;;6277212;22;20388;-70
2021/06/09 05:43:58;;;;;;;10.63;9.63;;;19.20;97.50;;;;;;6277036;22;20446;-68
2021/06/09 05:46:27;;;;;;;10.90;9.80;;;19.40;97.20;;;;;;6276374;22;20428;-68
2021/06/09 05:48:53;;;;;;;10.57;9.57;;;19.50;97.30;;;;;;6276745;22;20429;-68
2021/06/09 05:51:24;;;;;;;10.77;8.83;;;19.50;96.10;;;;;;6277116;22;20392;-69
2021/06/09 05:53:54;;;;;;;9.13;8.00;;;19.70;96.60;;;;;;6277470;22;20384;-68
2021/06/09 05:56:50;;;;;;;8.43;7.63;;;19.90;96.40;;;;;;6272979;22;20396;-69
2021/06/09 05:59:17;;;;;;;8.00;7.20;;;20.00;95.70;;;;;;6275279;22;20388;-68
2021/06/09 06:01:45;;;;;;;9.10;7.47;;;20.20;95.60;;;;;;6276337;22;20407;-69
2021/06/09 06:04:16;;;;;;;8.40;7.60;;;20.30;95.30;;;;;;6276825;22;20480;-68
2021/06/09 06:06:48;;;;;;;10.57;7.80;;;20.40;93.00;;;;;;6276902;22;20718;-68
2021/06/09 06:09:18;;;;;;;13.87;8.70;;;20.50;93.70;;;;;;6276065;22;20388;-68
2021/06/09 06:11:47;;;;;;;8.17;7.23;;;20.70;93.30;;;;;;6276557;22;20706;-68
2021/06/09 06:14:15;;;;;;;8.23;7.43;;;20.80;92.00;;;;;;6277445;22;20426;-68
2021/06/09 06:16:51;;;;;;;8.23;7.43;;;20.70;91.20;;;;;;6276673;22;20399;-68
2021/06/09 06:19:17;;;;;;;9.03;8.23;;;20.80;91.90;;;;;;6275864;22;20388;-69
2021/06/09 06:21:47;;;;;;;7.70;7.00;;;21.00;91.80;;;;;;6277436;22;20396;-69
2021/06/09 06:24:16;;;;;;;9.37;8.47;;;21.10;91.70;;;;;;6276011;22;20491;-69
2021/06/09 06:26:45;;;;;;;11.03;8.30;;;21.40;92.30;;;;;;6275595;22;20447;-69
2021/06/09 06:29:18;;;;;;;12.00;10.27;;;21.60;90.50;;;;;;6270630;22;20391;-70
2021/06/09 06:31:46;;;;;;;9.90;8.90;;;21.70;90.80;;;;;;6274963;22;20388;-69
2021/06/09 06:34:18;;;;;;;11.43;9.50;;;21.90;90.50;;;;;;6275251;22;20395;-71
2021/06/09 06:36:45;;;;;;;10.63;9.63;;;22.00;87.90;;;;;;6275465;22;20390;-69
2021/06/09 06:39:12;;;;;;;12.20;9.60;;;22.10;86.10;;;;;;6276311;22;20399;-69
2021/06/09 06:41:38;;;;;;;8.43;7.63;;;22.20;87.60;;;;;;6276382;22;20391;-69
2021/06/09 06:44:05;;;;;;;8.50;7.20;;;22.30;87.70;;;;;;6276003;22;20404;-69
2021/06/09 06:46:34;;;;;;;10.40;9.40;;;22.30;84.20;;;;;;6275859;22;20436;-70
2021/06/09 06:49:00;;;;;;;10.03;9.07;;;22.20;82.10;;;;;;6275824;22;20391;-70
2021/06/09 06:51:28;;;;;;;9.50;8.60;;;22.10;83.50;;;;;;6275732;22;20392;-70
2021/06/09 06:53:59;;;;;;;10.43;9.43;;;22.10;85.20;;;;;;6276138;22;20399;-70
2021/06/09 06:56:26;;;;;;;10.30;9.37;;;22.20;85.90;;;;;;6276100;22;20467;-73
2021/06/09 06:58:54;;;;;;;14.07;10.50;;;22.30;84.90;;;;;;6275974;22;20392;-70
2021/06/09 07:01:24;;;;;;;10.83;9.90;;;22.50;83.90;;;;;;6276668;22;20391;-70
2021/06/09 07:03:52;;;;;;;9.80;8.93;;;22.60;83.70;;;;;;6277136;22;20695;-70
2021/06/09 07:06:19;;;;;;;10.07;8.53;;;22.90;83.70;;;;;;6276837;22;20395;-73
2021/06/09 07:08:47;;;;;;;9.07;8.10;;;23.00;82.70;;;;;;6276984;22;20457;-70
2021/06/09 07:11:14;;;;;;;11.77;8.80;;;23.30;82.30;;;;;;6276199;22;20743;-70
2021/06/09 07:13:41;;;;;;;9.87;8.90;;;23.50;80.50;;;;;;6276483;22;20399;-70
2021/06/09 07:16:10;;;;;;;8.40;7.10;;;23.60;80.00;;;;;;6276371;22;20403;-69
2021/06/09 07:18:42;;;;;;;7.10;6.50;;;23.70;78.70;;;;;;6275838;22;20431;-70
2021/06/09 07:21:12;;;;;;;9.53;8.63;;;23.90;79.80;;;;;;6276788;22;20387;-70
2021/06/09 07:23:41;;;;;;;8.70;7.90;;;23.80;74.90;;;;;;6276216;22;20380;-71
2021/06/09 07:26:10;;;;;;;8.80;7.53;;;23.70;75.60;;;;;;6275940;22;20870;-70
2021/06/09 07:28:41;;;;;;;8.83;7.97;;;23.80;75.80;;;;;;6276089;22;20891;-70
2021/06/09 07:31:09;;;;;;;8.77;8.00;;;23.90;77.20;;;;;;6276226;22;20383;-70
2021/06/09 07:33:36;;;;;;;8.20;7.40;;;24.00;77.50;;;;;;6276679;22;20438;-70
2021/06/09 07:36:07;;;;;;;9.27;8.47;;;24.10;77.60;;;;;;6276873;22;20395;-70
2021/06/09 07:38:40;;;;;;;8.83;7.93;;;24.20;72.20;;;;;;6276596;22;20430;-70
2021/06/09 07:41:10;;;;;;;9.57;8.53;;;24.20;73.60;;;;;;6276345;22;20620;-71
2021/06/09 07:43:40;;;;;;;10.07;9.07;;;24.10;73.20;;;;;;6277039;22;20388;-71
2021/06/09 07:46:11;;;;;;;9.70;8.80;;;24.00;75.10;;;;;;6276959;22;20388;-70
2021/06/09 07:48:40;;;;;;;10.00;9.10;;;24.00;75.80;;;;;;6276916;22;20478;-70
2021/06/09 07:51:10;;;;;;;9.80;8.90;;;24.00;76.30;;;;;;6276663;22;20474;-71
2021/06/09 07:53:39;;;;;;;8.80;8.00;;;23.90;76.00;;;;;;6276411;22;20900;-70
2021/06/09 07:56:06;;;;;;;10.00;9.00;;;23.90;76.00;;;;;;6276852;22;20396;-70
2021/06/09 07:58:40;;;;;;;13.00;9.30;;;24.00;74.80;;;;;;6276823;22;20442;-70
2021/06/09 08:01:07;;;;;;;11.10;10.00;;;23.90;72.10;;;;;;6276418;22;20874;-70
2021/06/09 08:03:35;;;;;;;9.33;8.33;;;23.90;72.00;;;;;;6276849;22;20406;-70
2021/06/09 08:06:03;;;;;;;12.07;8.93;;;24.00;73.00;;;;;;6276916;22;20392;-70
2021/06/09 08:08:30;;;;;;;7.77;7.07;;;24.00;70.50;;;;;;6276608;22;20791;-70
2021/06/09 08:10:59;;;;;;;7.80;7.10;;;24.20;73.00;;;;;;6276749;22;20395;-70
2021/06/09 08:13:27;;;;;;;9.53;6.97;;;24.40;73.30;;;;;;6276910;22;21025;-71
2021/06/09 08:15:54;;;;;;;12.20;7.60;;;24.60;73.70;;;;;;6276664;22;20392;-70
2021/06/09 08:18:21;;;;;;;7.97;7.27;;;24.80;72.80;;;;;;6276636;22;20396;-69
2021/06/09 08:21:03;;;;;;;9.67;7.57;;;24.90;71.80;;;;;;6276579;22;20397;-70
2021/06/09 08:23:30;;;;;;;9.37;8.47;;;25.00;70.10;;;;;;6276231;22;20690;-70
2021/06/09 08:25:58;;;;;;;13.60;8.97;;;25.10;68.70;;;;;;6276134;22;20907;-71
2021/06/09 08:28:24;;;;;;;10.70;9.17;;;25.10;67.90;;;;;;6276040;22;20950;-70
2021/06/09 08:30:51;;;;;;;11.97;10.80;;;25.20;66.90;;;;;;6276577;22;20396;-70
2021/06/09 08:33:18;;;;;;;9.73;8.80;;;25.10;64.00;;;;;;6276403;22;20389;-69
2021/06/09 08:35:49;;;;;;;9.50;8.60;;;25.10;65.50;;;;;;6276211;22;20393;-69
2021/06/09 08:38:15;;;;;;;9.50;8.50;;;25.20;66.40;;;;;;6276691;22;20672;-70
2021/06/09 08:40:42;;;;;;;10.63;9.53;;;25.30;66.70;;;;;;6277440;22;20870;-71
2021/06/09 08:43:12;;;;;;;11.30;10.30;;;25.50;66.30;;;;;;6278476;22;20396;-70
2021/06/09 08:45:39;;;;;;;10.90;9.90;;;25.60;65.00;;;;;;6278574;22;20442;-69
2021/06/09 08:48:06;;;;;;;10.50;9.40;;;25.60;64.40;;;;;;6277918;22;20446;-71
2021/06/09 08:50:34;;;;;;;10.50;9.50;;;25.70;63.10;;;;;;6278637;22;20384;-69
2021/06/09 08:53:06;;;;;;;11.77;10.67;;;25.60;60.10;;;;;;6278109;22;20394;-70
2021/06/09 08:55:33;;;;;;;12.53;11.43;;;25.70;62.90;;;;;;6278787;22;20393;-70
2021/06/09 08:58:02;;;;;;;13.10;11.90;;;25.90;64.10;;;;;;6278443;22;20401;-70
2021/06/09 09:00:32;;;;;;;15.20;10.93;;;26.00;64.40;;;;;;6278096;22;20399;-69
2021/06/09 09:03:12;;;;;;;13.57;12.13;;;26.30;63.50;;;;;;6278187;22;20422;-70
2021/06/09 09:05:39;;;;;;;10.87;9.87;;;26.40;64.00;;;;;;6279112;22;20697;-69
2021/06/09 09:08:06;;;;;;;12.73;11.73;;;26.70;62.90;;;;;;6278386;22;20517;-71
2021/06/09 09:10:34;;;;;;;12.13;11.13;;;26.80;62.90;;;;;;6278376;22;20397;-70
2021/06/09 09:13:12;;;;;;;12.70;11.40;;;26.90;61.60;;;;;;6278977;22;20402;-70
2021/06/09 09:15:40;;;;;;;12.23;11.03;;;26.90;61.40;;;;;;6278235;22;20711;-70
2021/06/09 09:18:08;;;;;;;12.40;11.30;;;27.00;62.90;;;;;;6278311;22;20611;-71
2021/06/09 09:20:36;;;;;;;12.60;11.47;;;27.20;62.70;;;;;;6278478;22;20391;-69
2021/06/09 09:23:18;;;;;;;12.23;11.03;;;27.40;60.10;;;;;;6277949;22;20450;-69
2021/06/09 09:25:45;;;;;;;12.40;11.20;;;27.70;60.20;;;;;;6278905;22;20384;-69
2021/06/09 09:28:23;;;;;;;11.80;9.70;;;28.10;61.30;;;;;;6278457;22;20501;-70
2021/06/09 09:30:51;;;;;;;12.93;11.63;;;28.40;59.50;;;;;;6277849;22;20379;-70
2021/06/09 09:33:21;;;;;;;9.83;8.93;;;28.70;57.70;;;;;;6277961;22;20392;-69
2021/06/09 09:35:49;;;;;;;11.90;10.80;;;28.90;57.20;;;;;;6277950;22;20396;-70
2021/06/09 09:38:19;;;;;;;9.97;8.73;;;29.10;56.40;;;;;;6277941;22;20400;-70
2021/06/09 09:41:07;;;;;;;11.30;10.20;;;29.40;56.60;;;;;;6278165;22;20385;-70
2021/06/09 09:43:51;;;;;;;12.50;10.97;;;29.60;54.10;;;;;;6278450;22;20384;-70
2021/06/09 09:46:20;;;;;;;10.70;9.73;;;29.60;50.80;;;;;;6278065;22;20741;-70
2021/06/09 09:49:02;;;;;;;10.30;9.27;;;29.60;53.00;;;;;;6278029;22;20417;-70
2021/06/09 09:51:30;;;;;;;11.90;10.60;;;29.70;54.70;;;;;;6276944;22;20399;-70
2021/06/09 09:53:58;;;;;;;9.83;9.03;;;29.80;53.50;;;;;;6277888;22;20484;-70
2021/06/09 09:56:27;;;;;;;9.97;9.03;;;29.90;53.70;;;;;;6277954;22;20421;-70
2021/06/09 09:58:58;;;;;;;11.07;10.10;;;30.10;52.90;;;;;;6277885;22;20388;-70
2021/06/09 10:01:28;;;;;;;10.67;9.67;;;30.30;50.80;;;;;;6277929;22;20391;-70
2021/06/09 10:03:56;;;;;;;9.97;9.17;;;30.30;51.00;;;;;;6277325;22;20398;-70
2021/06/09 10:06:29;;;;;;;10.50;9.60;;;30.30;49.00;;;;;;6277672;22;20402;-70
2021/06/09 10:08:58;;;;;;;11.87;10.77;;;30.20;48.90;;;;;;6277426;22;20907;-70
2021/06/09 10:11:26;;;;;;;10.37;9.33;;;30.20;47.30;;;;;;6277795;22;20399;-70
2021/06/09 10:13:53;;;;;;;11.43;10.20;;;30.10;49.10;;;;;;6278147;22;20394;-71
2021/06/09 10:16:33;;;;;;;10.07;9.17;;;30.00;48.80;;;;;;6277269;22;20406;-72
2021/06/09 10:19:06;;;;;;;11.10;10.20;;;29.90;49.80;;;;;;6277733;22;20384;-70
2021/06/09 10:21:33;;;;;;;10.70;9.70;;;29.90;47.90;;;;;;6277415;22;20861;-70
2021/06/09 10:24:06;;;;;;;12.57;11.47;;;29.80;47.50;;;;;;6277016;22;20394;-70
2021/06/09 10:26:57;;;;;;;11.23;10.30;;;29.80;47.40;;;;;;6277525;22;20387;-69
2021/06/09 10:29:31;;;;;;;10.10;9.10;;;29.40;47.30;;;;;;6273753;22;20873;-70
2021/06/09 10:32:00;;;;;;;10.00;9.00;;;29.20;50.10;;;;;;6275547;22;20409;-70
2021/06/09 10:34:29;;;;;;;10.33;9.43;;;29.10;51.50;;;;;;6276567;22;20730;-70
2021/06/09 10:36:57;;;;;;;10.13;9.20;;;29.10;51.10;;;;;;6276236;22;20719;-70
2021/06/09 10:39:28;;;;;;;10.87;9.97;;;29.10;50.60;;;;;;6273870;22;20398;-72
2021/06/09 10:42:00;;;;;;;11.27;8.97;;;28.90;50.20;;;;;;6275750;22;20397;-70
2021/06/09 10:44:33;;;;;;;10.73;9.63;;;28.80;50.70;;;;;;6272681;22;20917;-70
2021/06/09 10:47:05;;;;;;;10.20;9.20;;;28.80;50.30;;;;;;6272947;22;20761;-70
2021/06/09 10:49:37;;;;;;;10.50;9.40;;;28.70;50.80;;;;;;6276925;22;20738;-69
2021/06/09 10:52:14;;;;;;;9.27;8.37;;;28.60;50.40;;;;;;6275788;22;20539;-70
2021/06/09 10:54:46;;;;;;;9.87;8.97;;;28.60;51.90;;;;;;6274279;22;20755;-72
2021/06/09 10:57:18;;;;;;;9.23;8.33;;;28.70;54.50;;;;;;6274172;22;20404;-70
2021/06/09 10:59:46;;;;;;;9.10;8.30;;;28.70;53.70;;;;;;6276198;22;20382;-71
2021/06/09 11:02:21;;;;;;;11.17;9.00;;;28.80;49.00;;;;;;6275329;22;20407;-70
2021/06/09 11:04:55;;;;;;;11.33;8.70;;;28.70;49.30;;;;;;6275749;22;20392;-70
2021/06/09 11:07:29;;;;;;;9.47;8.67;;;28.80;51.00;;;;;;6275821;22;20427;-70
2021/06/09 11:09:58;;;;;;;10.33;9.00;;;28.70;50.70;;;;;;6276462;22;20423;-70
2021/06/09 11:12:26;;;;;;;9.20;8.40;;;28.70;49.90;;;;;;6275854;22;20394;-70
2021/06/09 11:14:57;;;;;;;9.10;8.30;;;28.70;48.70;;;;;;6276309;22;20722;-70
2021/06/09 11:17:40;;;;;;;9.33;8.53;;;28.70;49.70;;;;;;6275474;22;20398;-69
2021/06/09 11:20:19;;;;;;;10.40;9.50;;;28.70;50.70;;;;;;6276046;22;20403;-70
2021/06/09 11:22:50;;;;;;;9.63;8.70;;;28.80;50.00;;;;;;6276398;22;20695;-70
2021/06/09 11:25:24;;;;;;;11.07;10.00;;;28.80;50.60;;;;;;6276163;22;20442;-71
2021/06/09 11:27:59;;;;;;;9.00;8.20;;;28.70;49.70;;;;;;6275731;22;20424;-69
2021/06/09 11:31:00;;;;;;;10.20;9.27;;;28.70;48.80;;;;;;6276549;22;20389;-69
2021/06/09 11:33:41;;;;;;;8.77;7.93;;;28.80;48.90;;;;;;6275650;22;20386;-70
2021/06/09 11:36:15;;;;;;;8.43;7.63;;;29.00;48.40;;;;;;6274750;22;20460;-69
2021/06/09 11:38:47;;;;;;;9.07;8.17;;;29.20;48.20;;;;;;6275714;22;20730;-69
2021/06/09 11:41:17;;;;;;;10.67;7.60;;;29.30;47.00;;;;;;6275913;22;20381;-70
2021/06/09 11:43:45;;;;;;;9.97;8.97;;;29.30;47.60;;;;;;6275220;22;20904;-69
2021/06/09 11:46:22;;;;;;;8.60;7.80;;;29.40;45.90;;;;;;6275273;22;20447;-69
2021/06/09 11:48:56;;;;;;;8.37;7.57;;;29.40;46.10;;;;;;6275006;22;20444;-70
2021/06/09 11:51:32;;;;;;;9.20;8.30;;;29.50;46.70;;;;;;6275881;22;20385;-70
2021/06/09 11:54:01;;;;;;;8.70;7.83;;;29.60;47.30;;;;;;6275625;22;20374;-70
2021/06/09 11:56:30;;;;;;;8.70;7.90;;;29.80;46.50;;;;;;6275383;22;20399;-70
2021/06/09 11:59:02;;;;;;;7.87;7.17;;;29.90;45.90;;;;;;6275245;22;20398;-71
2021/06/09 12:01:38;;;;;;;8.43;7.67;;;30.00;46.40;;;;;;6275283;22;20401;-70
2021/06/09 12:04:20;;;;;;;11.80;8.50;;;30.10;45.80;;;;;;6275530;22;20415;-70
2021/06/09 12:06:49;;;;;;;8.80;8.00;;;30.20;46.10;;;;;;6275477;22;20394;-70
2021/06/09 12:09:20;;;;;;;7.80;6.83;;;30.40;45.70;;;;;;6275725;22;20458;-70
2021/06/09 12:11:48;;;;;;;7.90;7.20;;;30.50;44.40;;;;;;6276151;22;20380;-70
2021/06/09 12:14:23;;;;;;;8.30;7.50;;;30.60;44.30;;;;;;6275388;22;20405;-70
2021/06/09 12:16:52;;;;;;;8.43;7.67;;;30.70;44.70;;;;;;6275522;22;20385;-72
2021/06/09 12:19:29;;;;;;;8.70;7.93;;;30.70;44.30;;;;;;6275367;22;20399;-70
2021/06/09 12:22:06;;;;;;;8.33;7.53;;;30.60;41.40;;;;;;6275952;22;20375;-70
2021/06/09 12:24:34;;;;;;;8.70;7.20;;;30.40;41.00;;;;;;6275195;22;20470;-70
2021/06/09 12:27:04;;;;;;;8.00;7.30;;;30.10;41.50;;;;;;6275331;22;20948;-70
2021/06/09 12:29:34;;;;;;;8.40;7.50;;;29.80;41.20;;;;;;6275083;22;20969;-71
2021/06/09 12:32:13;;;;;;;7.87;7.17;;;29.40;41.20;;;;;;6275711;22;20386;-69
2021/06/09 12:34:45;;;;;;;11.80;8.30;;;29.20;41.40;;;;;;6275560;22;20380;-70
2021/06/09 12:37:11;;;;;;;9.33;8.43;;;28.80;42.70;;;;;;6275219;22;20394;-70
2021/06/09 12:39:39;;;;;;;9.00;8.10;;;28.60;44.50;;;;;;6275945;22;20392;-69
2021/06/09 12:42:14;;;;;;;8.70;7.90;;;28.30;45.70;;;;;;6275275;22;20430;-69
2021/06/09 12:44:42;;;;;;;11.13;7.10;;;27.90;46.80;;;;;;6274498;22;20884;-69
2021/06/09 12:47:10;;;;;;;8.00;6.20;;;27.40;45.80;;;;;;6275134;22;20447;-69
2021/06/09 12:49:43;;;;;;;4.87;4.37;;;26.90;44.50;;;;;;6275900;22;20481;-69
2021/06/09 12:52:19;;;;;;;5.53;4.20;;;26.40;42.30;;;;;;6275257;22;20387;-69